Time;durP1;ratioP1;P1;durP2;ratioP2;P2;SDS_P1;SDS_P2;PMS_P1;PMS_P2;Temp;Humidity;BMP_temperature;BMP_pressure;BME280_temperature;BME280_humidity;BME280_pressure;Samples;Min_cycle;Max_cycle;Signal;HPM_P1;HPM_P2
2023/03/29 00:00:33;;;;;;;67.70;49.15;;;14.40;63.90;;;;;;4969895;28;90534;-74
2023/03/29 00:03:00;;;;;;;67.25;48.85;;;14.40;63.90;;;;;;4981323;28;89580;-76
2023/03/29 00:05:26;;;;;;;67.32;48.90;;;14.40;63.90;;;;;;4981568;28;94118;-74
2023/03/29 00:08:00;;;;;;;67.68;48.63;;;14.40;64.60;;;;;;4977556;28;89189;-75
2023/03/29 00:10:26;;;;;;;67.93;48.78;;;14.40;63.90;;;;;;4976422;28;90811;-74
2023/03/29 00:12:52;;;;;;;67.38;48.88;;;14.40;63.90;;;;;;4977773;28;88698;-73
2023/03/29 00:15:18;;;;;;;67.60;48.90;;;14.30;63.70;;;;;;4977040;28;89106;-75
2023/03/29 00:17:44;;;;;;;67.50;48.72;;;14.30;63.70;;;;;;4976205;28;94078;-74
2023/03/29 00:20:11;;;;;;;68.00;49.05;;;14.40;63.70;;;;;;4978528;28;89839;-73
2023/03/29 00:22:38;;;;;;;66.30;48.45;;;14.30;63.60;;;;;;4977868;28;89950;-75
2023/03/29 00:25:06;;;;;;;68.13;48.90;;;14.40;63.60;;;;;;4975250;28;95222;-76
2023/03/29 00:27:32;;;;;;;67.22;49.08;;;14.40;63.70;;;;;;4984871;28;90331;-76
2023/03/29 00:29:58;;;;;;;67.32;48.78;;;14.30;63.80;;;;;;4983495;28;89135;-75
2023/03/29 00:32:24;;;;;;;66.72;48.78;;;14.30;63.60;;;;;;4976448;28;89304;-75
2023/03/29 00:34:50;;;;;;;67.50;48.92;;;14.30;63.80;;;;;;4977398;28;90554;-73
2023/03/29 00:37:17;;;;;;;67.32;48.72;;;14.30;63.70;;;;;;4971984;28;94861;-74
2023/03/29 00:39:44;;;;;;;67.85;48.95;;;14.30;63.70;;;;;;4974432;28;89559;-73
2023/03/29 00:42:15;;;;;;;68.45;48.92;;;14.30;63.90;;;;;;4966563;28;92117;-75
2023/03/29 00:44:59;;;;;;;67.15;48.55;;;14.30;63.80;;;;;;4968726;28;92326;-73
2023/03/29 00:47:28;;;;;;;67.75;48.75;;;14.30;63.60;;;;;;4974756;28;89300;-75
2023/03/29 00:49:56;;;;;;;67.55;48.88;;;14.30;63.70;;;;;;4974719;28;89455;-72
2023/03/29 00:52:23;;;;;;;67.20;49.03;;;14.30;63.70;;;;;;4967677;28;93943;-73
2023/03/29 00:54:53;;;;;;;67.07;48.75;;;14.30;63.60;;;;;;4966152;28;94390;-75
2023/03/29 00:57:21;;;;;;;66.85;48.60;;;14.30;63.70;;;;;;4971481;28;91593;-75
2023/03/29 00:59:49;;;;;;;67.70;49.00;;;14.30;63.90;;;;;;4962702;28;91758;-73
2023/03/29 01:02:16;;;;;;;66.57;48.67;;;14.30;63.70;;;;;;4968056;28;90486;-74
2023/03/29 01:04:55;;;;;;;67.45;49.00;;;14.30;63.70;;;;;;4966500;28;91343;-75
2023/03/29 01:07:52;;;;;;;67.65;49.08;;;14.20;63.80;;;;;;4971761;28;89416;-75
2023/03/29 01:10:24;;;;;;;68.32;48.83;;;14.30;63.70;;;;;;4966892;28;90971;-73
2023/03/29 01:12:55;;;;;;;67.60;48.67;;;14.30;63.70;;;;;;4976681;28;89137;-73
2023/03/29 01:15:25;;;;;;;66.60;48.85;;;14.20;63.70;;;;;;4962863;28;89167;-74
2023/03/29 01:17:52;;;;;;;67.25;48.72;;;14.20;63.80;;;;;;4967349;28;89727;-73
2023/03/29 01:20:42;;;;;;;67.63;49.00;;;14.30;63.90;;;;;;4965177;28;89380;-74
2023/03/29 01:23:26;;;;;;;68.80;49.15;;;14.20;63.80;;;;;;4971580;28;95117;-73
2023/03/29 01:26:17;;;;;;;68.40;49.42;;;14.20;63.80;;;;;;4973414;28;90754;-73
2023/03/29 01:28:51;;;;;;;67.43;49.45;;;14.20;63.80;;;;;;4975483;28;89335;-73
2023/03/29 01:31:28;;;;;;;67.10;48.67;;;14.20;64.00;;;;;;4967843;28;92296;-75
2023/03/29 01:34:01;;;;;;;68.00;48.88;;;14.10;63.90;;;;;;4974078;28;90824;-76
2023/03/29 01:36:35;;;;;;;67.25;48.80;;;14.10;63.90;;;;;;4972624;28;90142;-74
2023/03/29 01:39:04;;;;;;;67.47;48.88;;;14.10;63.90;;;;;;4973813;28;88967;-73
2023/03/29 01:41:47;;;;;;;66.75;48.80;;;14.10;64.00;;;;;;4973689;28;90680;-74
2023/03/29 01:44:30;;;;;;;66.05;48.47;;;14.10;64.00;;;;;;4980213;28;88327;-74
2023/03/29 01:47:20;;;;;;;66.10;48.65;;;14.10;64.30;;;;;;4976809;28;89748;-75
2023/03/29 01:50:06;;;;;;;68.00;49.13;;;14.10;64.20;;;;;;4970172;28;90728;-74
2023/03/29 01:52:41;;;;;;;67.00;48.67;;;14.00;64.20;;;;;;4978063;28;91264;-76
2023/03/29 01:55:14;;;;;;;66.63;48.90;;;14.10;64.30;;;;;;4977304;28;89757;-75
2023/03/29 01:57:42;;;;;;;66.60;48.75;;;14.00;64.20;;;;;;4979804;28;89905;-75
2023/03/29 02:00:15;;;;;;;65.72;48.55;;;14.00;64.30;;;;;;4975473;28;90404;-74
2023/03/29 02:02:43;;;;;;;66.38;48.63;;;14.00;64.60;;;;;;4977430;28;90782;-75
2023/03/29 02:05:11;;;;;;;67.80;48.63;;;14.00;64.40;;;;;;4973083;28;89062;-74
2023/03/29 02:07:39;;;;;;;66.25;49.00;;;14.00;64.20;;;;;;4976812;28;89909;-77
2023/03/29 02:10:07;;;;;;;65.72;48.72;;;14.00;64.20;;;;;;4972043;28;89835;-75
2023/03/29 02:12:33;;;;;;;67.13;48.85;;;14.00;64.20;;;;;;4977625;28;90869;-73
2023/03/29 02:14:59;;;;;;;65.93;48.60;;;14.00;64.20;;;;;;4977401;28;89241;-73
2023/03/29 02:17:27;;;;;;;67.15;49.08;;;14.00;64.20;;;;;;4981142;28;90073;-74
2023/03/29 02:20:16;;;;;;;66.07;48.38;;;13.90;64.30;;;;;;4976403;28;89422;-74
2023/03/29 02:22:55;;;;;;;66.93;48.75;;;13.90;64.40;;;;;;4975247;28;89935;-74
2023/03/29 02:25:23;;;;;;;66.72;48.30;;;14.00;64.20;;;;;;4972325;28;90023;-75
2023/03/29 02:27:50;;;;;;;65.03;48.00;;;14.00;64.30;;;;;;4975241;28;92605;-73
2023/03/29 02:30:18;;;;;;;66.55;48.75;;;13.90;64.50;;;;;;4979751;28;89435;-75
2023/03/29 02:32:58;;;;;;;66.75;48.85;;;14.00;64.60;;;;;;4983432;28;89141;-74
2023/03/29 02:35:55;;;;;;;66.00;48.38;;;13.90;64.40;;;;;;4982956;28;88574;-73
2023/03/29 02:38:24;;;;;;;66.00;48.67;;;13.90;64.40;;;;;;4980416;28;91018;-75
2023/03/29 02:40:51;;;;;;;66.75;48.67;;;13.90;65.30;;;;;;4983795;28;89728;-72
2023/03/29 02:43:19;;;;;;;66.15;48.70;;;13.90;64.40;;;;;;4991911;28;94807;-75
2023/03/29 02:45:46;;;;;;;66.38;48.85;;;13.90;64.50;;;;;;4977281;28;88952;-74
2023/03/29 02:48:15;;;;;;;66.68;48.97;;;13.90;64.60;;;;;;4977581;28;89635;-74
2023/03/29 02:50:43;;;;;;;66.82;48.83;;;13.90;64.60;;;;;;4977623;28;90072;-74
2023/03/29 02:53:15;;;;;;;66.95;49.13;;;13.90;64.60;;;;;;4984522;28;89214;-74
2023/03/29 02:55:40;;;;;;;;;;;13.90;64.60;;;;;;4974519;28;90269;-73
2023/03/29 02:58:07;;;;;;;65.60;48.50;;;13.90;64.30;;;;;;4989282;28;90333;-73
2023/03/29 03:00:38;;;;;;;66.78;48.75;;;13.90;64.60;;;;;;4981066;28;89507;-74
2023/03/29 03:03:08;;;;;;;66.38;48.80;;;13.90;64.60;;;;;;4981067;28;89206;-72
2023/03/29 03:05:34;;;;;;;66.55;48.65;;;13.90;64.50;;;;;;4975314;28;88937;-75
2023/03/29 03:08:01;;;;;;;67.05;48.75;;;13.90;64.50;;;;;;4977255;28;91122;-75
2023/03/29 03:10:27;;;;;;;66.93;48.95;;;13.90;64.40;;;;;;4972322;28;90540;-74
2023/03/29 03:12:52;;;;;;;66.40;48.53;;;13.90;64.50;;;;;;4977356;28;95255;-76
2023/03/29 03:15:18;;;;;;;66.38;48.83;;;13.90;64.50;;;;;;4976969;28;89042;-73
2023/03/29 03:17:45;;;;;;;66.35;48.83;;;13.90;64.50;;;;;;4972702;28;89712;-74
2023/03/29 03:20:11;;;;;;;68.38;48.83;;;13.80;64.50;;;;;;4978492;28;90039;-74
2023/03/29 03:22:39;;;;;;;66.93;48.85;;;13.90;64.60;;;;;;4982871;28;89651;-76
2023/03/29 03:25:05;;;;;;;66.18;48.50;;;13.90;64.60;;;;;;4980348;28;89717;-74
2023/03/29 03:27:32;;;;;;;65.93;48.67;;;13.90;64.60;;;;;;4979159;28;91236;-75
2023/03/29 03:29:58;;;;;;;66.38;48.78;;;13.90;64.40;;;;;;4983697;28;89043;-73
2023/03/29 03:32:24;;;;;;;65.95;48.22;;;13.90;64.60;;;;;;4983049;28;89732;-75
2023/03/29 03:34:49;;;;;;;65.65;48.13;;;13.90;64.60;;;;;;4979790;28;89122;-74
2023/03/29 03:37:15;;;;;;;66.53;48.55;;;13.90;64.50;;;;;;4977446;28;91492;-74
2023/03/29 03:39:41;;;;;;;65.97;48.20;;;13.80;64.60;;;;;;4981361;28;90751;-73
2023/03/29 03:42:06;;;;;;;65.95;48.35;;;13.80;64.80;;;;;;4977134;28;89189;-75
2023/03/29 03:44:32;;;;;;;66.45;48.65;;;13.80;64.90;;;;;;4983686;28;90060;-74
2023/03/29 03:46:57;;;;;;;65.45;48.47;;;13.80;64.70;;;;;;4980930;28;89084;-75
2023/03/29 03:49:23;;;;;;;66.35;48.70;;;13.80;64.80;;;;;;4983406;28;88352;-75
2023/03/29 03:51:49;;;;;;;66.53;48.63;;;13.80;64.80;;;;;;4986980;28;89834;-75
2023/03/29 03:54:15;;;;;;;66.63;48.72;;;13.80;64.80;;;;;;4986712;28;89283;-72
2023/03/29 03:56:41;;;;;;;66.55;48.60;;;13.80;64.80;;;;;;4976499;28;91015;-73
2023/03/29 03:59:06;;;;;;;66.65;48.92;;;13.80;64.80;;;;;;4978326;28;89896;-75
2023/03/29 04:01:34;;;;;;;66.97;48.28;;;13.80;64.80;;;;;;4981155;28;89334;-73
2023/03/29 04:03:59;;;;;;;66.20;48.65;;;13.80;64.70;;;;;;4969075;28;94881;-73
2023/03/29 04:06:29;;;;;;;65.72;48.45;;;13.80;64.80;;;;;;4983139;28;89073;-73
2023/03/29 04:08:54;;;;;;;66.30;48.45;;;13.80;64.70;;;;;;4979088;28;90853;-73
2023/03/29 04:11:20;;;;;;;66.05;48.35;;;13.80;65.00;;;;;;4974840;28;89261;-73
2023/03/29 04:13:46;;;;;;;66.15;48.80;;;13.80;64.80;;;;;;4977890;28;88386;-75
2023/03/29 04:16:11;;;;;;;66.20;48.55;;;13.80;64.80;;;;;;4978345;28;88816;-73
2023/03/29 04:18:37;;;;;;;66.13;48.22;;;13.80;64.80;;;;;;4974254;28;94135;-74
2023/03/29 04:21:03;;;;;;;65.65;48.00;;;13.80;64.80;;;;;;4978106;28;96078;-74
2023/03/29 04:23:28;;;;;;;65.55;48.72;;;13.80;65.00;;;;;;4976351;28;88459;-74
2023/03/29 04:25:55;;;;;;;66.10;48.60;;;13.80;64.80;;;;;;4973245;28;89461;-74
2023/03/29 04:28:21;;;;;;;66.82;48.45;;;13.80;64.80;;;;;;4969745;28;89958;-74
2023/03/29 04:30:47;;;;;;;65.80;48.50;;;13.80;64.80;;;;;;4972084;28;89134;-75
2023/03/29 04:33:13;;;;;;;67.53;49.17;;;13.80;64.90;;;;;;4976019;28;89229;-73
2023/03/29 04:35:39;;;;;;;66.18;48.53;;;13.80;64.90;;;;;;4972292;28;89455;-75
2023/03/29 04:38:08;;;;;;;66.15;48.40;;;13.80;65.00;;;;;;4975305;28;89283;-73
2023/03/29 04:40:34;;;;;;;67.85;48.90;;;13.80;64.80;;;;;;4976663;28;88863;-77
2023/03/29 04:43:01;;;;;;;65.88;48.45;;;13.80;64.80;;;;;;4982751;28;89953;-75
2023/03/29 04:45:27;;;;;;;66.03;48.55;;;13.80;64.90;;;;;;4971923;28;90045;-73
2023/03/29 04:47:58;;;;;;;68.65;48.95;;;13.80;65.00;;;;;;4969000;28;90490;-75
2023/03/29 04:50:24;;;;;;;66.88;49.05;;;13.80;64.80;;;;;;4976725;28;90352;-75
2023/03/29 04:52:50;;;;;;;66.80;48.83;;;13.80;64.80;;;;;;4977285;28;89156;-76
2023/03/29 04:55:15;;;;;;;67.28;48.55;;;13.80;64.70;;;;;;4977745;28;88789;-74
2023/03/29 04:57:43;;;;;;;65.40;48.28;;;13.80;64.80;;;;;;4984192;28;88967;-73
2023/03/29 05:00:13;;;;;;;65.70;48.42;;;13.80;64.80;;;;;;4980536;28;88522;-73
2023/03/29 05:02:43;;;;;;;67.30;48.75;;;13.80;64.80;;;;;;4968952;28;89327;-75
2023/03/29 05:05:10;;;;;;;65.97;48.72;;;13.80;64.80;;;;;;4972397;28;91181;-73
2023/03/29 05:07:36;;;;;;;67.35;48.67;;;13.80;64.90;;;;;;4969874;28;96326;-73
2023/03/29 05:10:01;;;;;;;67.10;48.30;;;13.80;65.40;;;;;;4971426;28;90128;-76
2023/03/29 05:12:27;;;;;;;67.18;48.80;;;13.80;65.20;;;;;;4976626;28;89128;-74
2023/03/29 05:14:53;;;;;;;67.55;48.65;;;13.80;65.40;;;;;;4963189;28;88909;-75
2023/03/29 05:17:19;;;;;;;66.20;48.60;;;13.80;65.40;;;;;;4962146;28;89280;-75
2023/03/29 05:19:45;;;;;;;66.53;49.00;;;13.80;65.40;;;;;;4967505;28;88841;-75
2023/03/29 05:22:11;;;;;;;66.22;48.53;;;13.80;65.80;;;;;;4967136;28;89958;-72
2023/03/29 05:24:37;;;;;;;65.47;48.35;;;13.90;65.90;;;;;;4959540;28;90758;-74
2023/03/29 05:27:02;;;;;;;66.13;48.85;;;13.80;66.00;;;;;;4975839;28;89587;-75
2023/03/29 05:29:28;;;;;;;67.55;48.58;;;13.80;65.60;;;;;;4975630;28;91520;-75
2023/03/29 05:31:53;;;;;;;65.78;48.53;;;13.80;65.70;;;;;;4984042;28;89264;-79
2023/03/29 05:34:19;;;;;;;66.82;48.67;;;13.80;65.80;;;;;;4974977;28;90507;-80
2023/03/29 05:36:45;;;;;;;68.05;49.28;;;13.80;66.00;;;;;;4967129;28;94394;-76
2023/03/29 05:39:10;;;;;;;66.80;48.88;;;13.80;66.10;;;;;;4975981;28;89183;-77
2023/03/29 05:41:36;;;;;;;70.70;49.20;;;13.90;66.20;;;;;;4981027;28;89774;-74
2023/03/29 05:44:02;;;;;;;66.97;48.75;;;13.80;66.30;;;;;;4981137;28;89441;-79
2023/03/29 05:46:28;;;;;;;71.20;49.13;;;13.90;66.20;;;;;;4981483;28;89294;-74
2023/03/29 05:48:53;;;;;;;67.57;49.38;;;13.90;66.00;;;;;;4973096;28;90254;-78
2023/03/29 05:51:23;;;;;;;68.50;49.00;;;13.90;66.60;;;;;;4981694;28;88485;-77
2023/03/29 05:53:49;;;;;;;67.43;49.33;;;13.90;66.60;;;;;;4981719;28;89459;-76
2023/03/29 05:56:15;;;;;;;69.50;49.15;;;13.90;66.40;;;;;;4968326;28;92885;-78
2023/03/29 05:58:41;;;;;;;71.63;49.03;;;14.00;66.30;;;;;;4979813;28;90155;-79
2023/03/29 06:01:13;;;;;;;70.57;49.25;;;13.90;66.80;;;;;;4971490;28;89634;-79
2023/03/29 06:03:39;;;;;;;72.28;49.17;;;13.90;66.60;;;;;;4970769;28;89765;-72
2023/03/29 06:06:07;;;;;;;71.13;49.45;;;14.00;66.70;;;;;;4975939;28;90100;-77
2023/03/29 06:08:33;;;;;;;68.05;49.33;;;14.20;66.10;;;;;;4971963;28;90025;-76
2023/03/29 06:11:07;;;;;;;69.03;49.53;;;14.20;65.70;;;;;;4973129;28;90122;-75
2023/03/29 06:13:33;;;;;;;73.35;49.22;;;14.20;65.90;;;;;;4977595;28;89416;-81
2023/03/29 06:16:00;;;;;;;70.35;49.45;;;14.30;66.10;;;;;;4970825;28;89834;-80
2023/03/29 06:18:26;;;;;;;74.70;49.70;;;14.30;65.90;;;;;;4954890;28;89767;-76
2023/03/29 06:20:52;;;;;;;75.72;49.72;;;14.30;67.20;;;;;;4970163;28;90211;-77
2023/03/29 06:23:19;;;;;;;74.55;49.63;;;14.40;68.60;;;;;;4975514;28;92188;-79
2023/03/29 06:25:45;;;;;;;71.50;49.63;;;14.40;69.40;;;;;;4970307;28;89631;-78
2023/03/29 06:28:13;;;;;;;69.82;50.00;;;14.50;69.60;;;;;;4973135;22;91576;-79
2023/03/29 06:31:44;;;;;;;;;;;;;;;;;;;;;
2023/03/29 06:42:39;;;;;;;71.47;49.38;;;14.70;68.70;;;;;;4857794;28;89884;-75
2023/03/29 06:45:12;;;;;;;70.55;49.38;;;14.80;68.20;;;;;;4859546;28;89850;-76
2023/03/29 06:54:54;;;;;;;70.60;49.55;;;14.80;68.60;;;;;;4769801;29;90875;-75
2023/03/29 06:57:20;;;;;;;68.95;49.72;;;14.70;68.20;;;;;;4915830;28;89722;-76
2023/03/29 06:59:46;;;;;;;74.45;49.60;;;14.70;67.90;;;;;;4928068;28;90436;-76
2023/03/29 07:02:12;;;;;;;71.40;49.60;;;14.60;67.70;;;;;;4981392;28;90475;-75
2023/03/29 07:04:40;;;;;;;73.90;49.60;;;14.60;67.40;;;;;;4978956;28;90025;-75
2023/03/29 07:07:10;;;;;;;69.95;49.63;;;14.70;67.20;;;;;;4964290;28;89838;-73
2023/03/29 07:09:38;;;;;;;74.20;49.60;;;14.70;67.10;;;;;;4981091;28;90195;-76
2023/03/29 07:12:05;;;;;;;68.45;49.53;;;14.70;67.80;;;;;;4973149;28;88860;-73
2023/03/29 07:14:33;;;;;;;69.28;49.78;;;14.80;68.40;;;;;;4977696;28;89065;-76
2023/03/29 07:16:58;;;;;;;69.45;50.00;;;14.80;68.10;;;;;;5004080;28;88672;-78
2023/03/29 07:19:26;;;;;;;70.20;49.72;;;14.70;67.60;;;;;;4984496;28;90581;-76
2023/03/29 07:21:53;;;;;;;69.78;49.40;;;14.70;68.10;;;;;;4974084;28;90592;-75
2023/03/29 07:24:21;;;;;;;71.65;49.88;;;14.70;67.90;;;;;;4990142;28;89114;-77
2023/03/29 07:29:21;;;;;;;70.72;50.25;;;14.90;68.30;;;;;;4978377;28;91023;-59
2023/03/29 07:31:47;;;;;;;72.05;50.33;;;14.90;68.30;;;;;;4976594;28;90758;-55
2023/03/29 07:34:16;;;;;;;72.50;50.45;;;15.00;68.10;;;;;;4976617;28;90684;-46
2023/03/29 07:36:42;;;;;;;71.65;50.25;;;15.00;68.10;;;;;;4977322;28;88790;-56
2023/03/29 07:39:11;;;;;;;74.68;50.35;;;15.10;67.90;;;;;;4978572;28;89301;-59
2023/03/29 07:41:43;;;;;;;73.72;50.63;;;15.10;67.90;;;;;;4968817;28;90473;-55
2023/03/29 07:44:11;;;;;;;74.00;50.38;;;15.10;67.90;;;;;;4974357;28;91704;-53
2023/03/29 07:46:37;;;;;;;72.80;50.67;;;15.20;67.40;;;;;;4955714;28;90255;-43
2023/03/29 07:49:05;;;;;;;73.53;50.22;;;15.20;67.20;;;;;;4979696;28;89443;-44
2023/03/29 07:51:31;;;;;;;73.57;50.10;;;15.20;67.30;;;;;;4973878;28;89699;-58
2023/03/29 07:53:58;;;;;;;76.85;50.45;;;15.20;67.80;;;;;;4979179;28;89759;-59
2023/03/29 07:56:25;;;;;;;71.65;50.25;;;15.30;67.30;;;;;;4979180;28;92705;-51
2023/03/29 07:58:50;;;;;;;73.93;50.55;;;15.40;66.90;;;;;;4977779;28;90264;-58
2023/03/29 08:01:18;;;;;;;73.28;50.25;;;15.40;66.60;;;;;;4974646;28;90194;-52
2023/03/29 08:03:43;;;;;;;73.45;50.35;;;15.50;66.30;;;;;;4982885;28;90445;-53
2023/03/29 08:06:09;;;;;;;74.57;50.15;;;15.50;65.70;;;;;;4971378;28;89781;-57
2023/03/29 08:08:35;;;;;;;75.40;50.45;;;15.50;65.60;;;;;;4976490;28;90885;-55
2023/03/29 08:11:01;;;;;;;75.85;50.67;;;15.40;66.20;;;;;;4972344;28;89647;-57
2023/03/29 08:13:27;;;;;;;72.38;49.88;;;15.50;65.90;;;;;;4971953;28;89447;-60
2023/03/29 08:15:52;;;;;;;73.57;50.78;;;15.40;65.80;;;;;;4972831;28;95862;-56
2023/03/29 08:18:18;;;;;;;70.80;50.15;;;15.40;66.10;;;;;;4981670;28;90604;-50
2023/03/29 08:20:44;;;;;;;75.65;51.05;;;15.50;66.30;;;;;;4975094;28;89659;-57
2023/03/29 08:23:10;;;;;;;78.60;50.60;;;15.60;66.00;;;;;;4975222;28;89708;-55
2023/03/29 08:25:36;;;;;;;81.53;50.42;;;15.60;65.80;;;;;;4974506;28;89473;-49
2023/03/29 08:28:01;;;;;;;86.95;50.67;;;15.60;65.70;;;;;;4976354;28;89746;-53
2023/03/29 08:30:27;;;;;;;81.05;50.95;;;15.70;65.30;;;;;;4972367;28;88987;-52
2023/03/29 08:32:53;;;;;;;72.93;50.42;;;15.70;65.30;;;;;;4974143;28;91939;-56
2023/03/29 08:35:19;;;;;;;75.50;50.55;;;15.70;65.40;;;;;;4973237;28;89893;-58
2023/03/29 08:37:44;;;;;;;75.88;50.83;;;15.80;65.60;;;;;;4976440;28;90307;-58
2023/03/29 08:40:23;;;;;;;75.90;50.92;;;15.80;65.40;;;;;;4976638;28;89564;-60
2023/03/29 08:43:03;;;;;;;72.88;50.47;;;15.80;65.40;;;;;;4974708;28;90224;-57
2023/03/29 08:45:47;;;;;;;73.90;51.13;;;15.80;65.20;;;;;;4977010;28;90370;-49
2023/03/29 08:48:22;;;;;;;72.47;50.33;;;15.70;65.50;;;;;;4974173;28;89825;-51
2023/03/29 08:50:55;;;;;;;74.22;50.78;;;15.80;65.80;;;;;;4974658;28;90122;-54
2023/03/29 08:53:40;;;;;;;74.45;50.85;;;15.90;65.60;;;;;;4973100;28;89456;-52
2023/03/29 08:56:13;;;;;;;77.30;50.90;;;15.90;65.60;;;;;;4975315;28;92465;-54
2023/03/29 08:58:42;;;;;;;75.80;50.88;;;15.90;65.40;;;;;;4972814;28;93106;-58
2023/03/29 09:01:10;;;;;;;74.13;50.90;;;16.00;66.00;;;;;;4972459;28;90922;-58
2023/03/29 09:03:48;;;;;;;75.38;50.58;;;16.00;65.90;;;;;;4975356;28;91279;-59
2023/03/29 09:06:18;;;;;;;75.43;50.85;;;16.00;66.00;;;;;;4978835;28;90384;-59
2023/03/29 09:08:51;;;;;;;76.25;51.20;;;16.10;66.30;;;;;;4978675;28;89526;-46
2023/03/29 09:11:23;;;;;;;74.68;50.80;;;16.10;66.30;;;;;;4977555;28;92501;-58
2023/03/29 09:13:48;;;;;;;;;;;16.10;66.10;;;;;;4979660;28;89525;-53
2023/03/29 09:16:43;;;;;;;74.63;50.90;;;16.10;65.90;;;;;;4980084;28;89163;-52
2023/03/29 09:20:06;;;;;;;77.38;50.85;;;16.20;66.20;;;;;;4979916;28;89282;-59
2023/03/29 09:22:46;;;;;;;74.65;50.65;;;16.20;65.90;;;;;;4882987;28;89405;-63
2023/03/29 09:25:40;;;;;;;76.13;51.00;;;16.20;65.80;;;;;;4882585;28;90820;-57
2023/03/29 09:28:15;;;;;;;78.80;51.10;;;16.20;65.60;;;;;;4952499;28;89584;-59
2023/03/29 09:30:51;;;;;;;78.50;51.05;;;16.40;65.50;;;;;;4979040;28;92374;-64
2023/03/29 09:33:26;;;;;;;76.70;51.65;;;16.40;65.00;;;;;;4973660;28;89601;-63
2023/03/29 09:36:17;;;;;;;74.72;51.13;;;16.40;65.20;;;;;;4979243;28;89991;-61
2023/03/29 09:38:47;;;;;;;78.23;50.73;;;16.40;65.30;;;;;;4977224;28;95025;-53
2023/03/29 09:41:22;;;;;;;76.65;50.95;;;16.40;65.60;;;;;;4972218;28;91848;-50
2023/03/29 09:43:50;;;;;;;74.25;50.75;;;16.40;65.50;;;;;;4980761;28;95199;-55
2023/03/29 09:46:27;;;;;;;75.57;51.25;;;16.50;65.30;;;;;;4981843;28;89328;-57
2023/03/29 09:48:55;;;;;;;73.63;50.78;;;16.60;64.80;;;;;;4979553;28;89526;-56
2023/03/29 09:51:25;;;;;;;77.30;50.70;;;16.60;64.80;;;;;;4977033;28;90813;-57
2023/03/29 09:53:51;;;;;;;77.13;50.97;;;16.70;64.70;;;;;;4978895;28;89660;-56
2023/03/29 09:56:17;;;;;;;77.85;51.13;;;16.70;65.20;;;;;;4970182;28;94769;-57
2023/03/29 09:58:45;;;;;;;74.18;51.17;;;16.70;64.40;;;;;;4979802;28;89395;-54
2023/03/29 10:01:16;;;;;;;74.50;51.33;;;16.70;64.70;;;;;;4975313;28;95753;-63
2023/03/29 10:03:47;;;;;;;78.53;50.87;;;16.60;64.80;;;;;;4976921;28;89830;-48
2023/03/29 10:06:13;;;;;;;75.47;50.88;;;16.50;64.90;;;;;;4976516;28;91681;-57
2023/03/29 10:08:50;;;;;;;74.95;50.75;;;16.60;64.80;;;;;;4965019;28;88807;-47
2023/03/29 10:11:31;;;;;;;76.38;51.15;;;16.50;64.90;;;;;;4970369;28;89866;-53
2023/03/29 10:14:01;;;;;;;;;;;16.60;64.80;;;;;;4965086;28;94512;-53
2023/03/29 10:16:37;;;;;;;75.72;50.85;;;16.60;64.60;;;;;;4988536;28;91509;-59
2023/03/29 10:19:26;;;;;;;77.03;51.70;;;16.60;64.60;;;;;;4949993;28;91606;-51
2023/03/29 10:21:53;;;;;;;74.60;51.08;;;16.60;64.80;;;;;;4957412;28;90533;-58
2023/03/29 10:24:21;;;;;;;74.03;51.40;;;16.70;65.00;;;;;;4961473;28;91460;-62
2023/03/29 10:26:54;;;;;;;75.32;51.05;;;16.70;65.50;;;;;;4971743;28;90494;-61
2023/03/29 10:29:21;;;;;;;77.95;51.83;;;16.70;65.80;;;;;;4999843;22;92457;-78
2023/03/29 10:31:47;;;;;;;78.78;51.45;;;16.70;65.80;;;;;;4993856;22;90161;-41
2023/03/29 10:34:15;;;;;;;79.32;51.60;;;16.70;65.40;;;;;;4987943;28;89570;-43
2023/03/29 10:36:46;;;;;;;76.93;51.63;;;16.70;65.30;;;;;;4981266;28;90451;-42
2023/03/29 10:39:14;;;;;;;79.32;51.45;;;16.70;65.10;;;;;;4996111;28;90432;-43
2023/03/29 10:41:40;;;;;;;77.50;50.85;;;16.80;65.10;;;;;;4993303;28;90796;-45
2023/03/29 10:44:22;;;;;;;74.90;51.05;;;16.80;64.80;;;;;;4996077;28;90690;-41
2023/03/29 10:46:48;;;;;;;75.85;50.70;;;16.80;64.70;;;;;;4987380;28;89636;-46
2023/03/29 10:49:18;;;;;;;75.70;51.28;;;16.80;64.50;;;;;;4997624;28;89455;-42
2023/03/29 10:51:45;;;;;;;74.90;51.17;;;16.70;64.80;;;;;;4994195;28;90275;-43
2023/03/29 10:54:14;;;;;;;76.68;51.35;;;16.70;64.40;;;;;;4995206;28;89821;-43
2023/03/29 10:57:02;;;;;;;74.70;51.33;;;16.70;64.40;;;;;;4996248;28;90156;-45
2023/03/29 10:59:59;;;;;;;74.78;51.20;;;16.80;64.50;;;;;;4994957;28;89229;-42
2023/03/29 11:02:59;;;;;;;75.93;51.10;;;16.80;64.30;;;;;;4940809;28;89958;-43
2023/03/29 11:05:27;;;;;;;76.40;51.25;;;16.70;64.20;;;;;;4993347;28;89637;-46
2023/03/29 11:08:25;;;;;;;78.00;51.45;;;16.80;64.10;;;;;;4993327;28;92187;-41
2023/03/29 11:11:02;;;;;;;76.30;51.35;;;16.80;64.10;;;;;;4997489;28;95557;-43
2023/03/29 11:13:51;;;;;;;74.70;51.13;;;16.80;64.00;;;;;;4996491;28;91514;-44
2023/03/29 11:16:47;;;;;;;75.22;51.03;;;16.80;64.00;;;;;;4992532;28;91008;-43
2023/03/29 11:19:24;;;;;;;75.47;51.25;;;16.80;63.90;;;;;;4999597;28;90335;-44
2023/03/29 11:22:08;;;;;;;79.93;51.08;;;16.80;63.90;;;;;;4993535;28;90921;-41
2023/03/29 11:24:46;;;;;;;77.30;50.78;;;16.80;63.80;;;;;;4992156;28;91668;-44
2023/03/29 11:27:26;;;;;;;75.20;50.88;;;16.80;63.70;;;;;;5017033;22;90048;-82
2023/03/29 11:29:57;;;;;;;77.77;51.23;;;16.80;63.80;;;;;;4994622;22;91759;-60
2023/03/29 11:32:36;;;;;;;77.32;51.10;;;16.80;63.70;;;;;;4986255;28;91704;-60
2023/03/29 11:35:17;;;;;;;78.03;51.17;;;16.80;63.60;;;;;;4991736;28;90467;-60
2023/03/29 11:38:04;;;;;;;74.68;51.20;;;16.80;63.60;;;;;;4993364;28;90966;-55
2023/03/29 11:41:00;;;;;;;76.15;51.38;;;16.80;63.60;;;;;;4990592;28;90156;-58
2023/03/29 11:43:46;;;;;;;74.93;50.90;;;16.80;63.50;;;;;;4990478;28;89611;-55
2023/03/29 11:46:20;;;;;;;74.78;51.33;;;16.90;63.60;;;;;;4993706;28;91507;-60
2023/03/29 11:48:57;;;;;;;76.45;51.45;;;16.90;63.60;;;;;;4991475;28;89949;-61
2023/03/29 11:51:29;;;;;;;79.38;51.35;;;16.90;63.40;;;;;;4989493;28;91027;-59
2023/03/29 11:54:09;;;;;;;75.20;51.17;;;16.90;63.70;;;;;;4999204;28;89536;-55
2023/03/29 11:56:51;;;;;;;74.40;51.33;;;16.90;63.80;;;;;;4992683;28;89998;-60
2023/03/29 11:59:36;;;;;;;74.80;50.88;;;16.90;64.10;;;;;;4985198;28;90163;-59
2023/03/29 12:02:24;;;;;;;74.63;51.00;;;17.10;64.10;;;;;;4981499;28;93311;-51
2023/03/29 12:04:54;;;;;;;77.72;51.50;;;17.10;64.10;;;;;;4986133;28;91065;-50
2023/03/29 12:07:33;;;;;;;75.95;51.55;;;17.10;64.20;;;;;;4988495;28;89896;-59
2023/03/29 12:10:05;;;;;;;78.55;51.58;;;17.10;63.80;;;;;;4993717;28;89627;-60
2023/03/29 12:12:51;;;;;;;79.57;51.38;;;17.30;63.80;;;;;;4985656;28;90223;-46
2023/03/29 12:15:20;;;;;;;79.88;51.80;;;17.30;63.90;;;;;;4991764;28;89517;-62
2023/03/29 12:17:58;;;;;;;77.18;51.33;;;17.40;64.00;;;;;;4995005;28;90113;-59
2023/03/29 12:20:28;;;;;;;77.30;51.60;;;17.40;64.20;;;;;;5000277;28;94624;-61
2023/03/29 12:22:54;;;;;;;77.43;51.45;;;17.40;64.30;;;;;;4988467;28;89898;-62
2023/03/29 12:25:51;;;;;;;82.43;51.92;;;17.40;64.40;;;;;;4989621;28;89755;-53
2023/03/29 12:28:33;;;;;;;76.80;51.55;;;17.30;64.60;;;;;;4946486;28;92682;-57
2023/03/29 12:31:12;;;;;;;77.10;52.00;;;17.40;64.60;;;;;;4963063;28;90628;-56
2023/03/29 12:34:00;;;;;;;75.55;51.33;;;17.50;64.80;;;;;;4973148;28;93692;-52
2023/03/29 12:36:44;;;;;;;80.55;51.83;;;17.50;64.80;;;;;;4965673;28;90525;-63
2023/03/29 12:39:20;;;;;;;80.22;51.58;;;17.40;64.50;;;;;;4967544;28;91515;-58
2023/03/29 12:41:52;;;;;;;79.70;51.67;;;17.40;64.70;;;;;;4978688;28;94663;-53
2023/03/29 12:44:22;;;;;;;78.35;51.33;;;17.50;64.60;;;;;;4968929;28;90058;-60
2023/03/29 12:46:56;;;;;;;79.43;51.63;;;17.50;64.60;;;;;;4979354;28;88684;-62
2023/03/29 12:49:36;;;;;;;77.18;51.95;;;17.50;64.80;;;;;;4981091;28;89334;-58
2023/03/29 12:52:15;;;;;;;82.22;52.17;;;17.50;64.50;;;;;;4976523;28;89114;-59
2023/03/29 12:54:52;;;;;;;78.50;51.45;;;17.40;64.60;;;;;;4975517;28;90024;-52
2023/03/29 12:57:24;;;;;;;79.13;51.95;;;17.50;64.80;;;;;;4972341;28;89868;-57
2023/03/29 12:59:51;;;;;;;79.63;51.78;;;17.60;64.70;;;;;;4974551;28;90121;-58
2023/03/29 13:02:16;;;;;;;77.78;51.50;;;17.50;64.70;;;;;;4971116;28;89217;-59
2023/03/29 13:04:42;;;;;;;77.68;51.45;;;17.60;64.80;;;;;;4968218;28;88793;-52
2023/03/29 13:07:25;;;;;;;80.05;51.83;;;17.60;64.70;;;;;;4968941;28;90170;-51